sensor_id;sensor_type;location;lat;lon;timestamp;temperature;humidity
60701;DHT22;46541;49.894;10.886;2024-02-23T00:01:53;10.30;99.90
60701;DHT22;46541;49.894;10.886;2024-02-23T00:04:23;10.30;99.90
60701;DHT22;46541;49.894;10.886;2024-02-23T00:06:53;10.20;99.90
60701;DHT22;46541;49.894;10.886;2024-02-23T00:09:23;10.30;99.90
60701;DHT22;46541;49.894;10.886;2024-02-23T00:11:53;10.20;99.90
60701;DHT22;46541;49.894;10.886;2024-02-23T00:14:23;10.20;99.90
60701;DHT22;46541;49.894;10.886;2024-02-23T00:16:53;10.20;99.90
60701;DHT22;46541;49.894;10.886;2024-02-23T00:19:23;10.20;99.90
60701;DHT22;46541;49.894;10.886;2024-02-23T00:21:53;10.20;99.90
60701;DHT22;46541;49.894;10.886;2024-02-23T00:24:22;10.20;99.90
60701;DHT22;46541;49.894;10.886;2024-02-23T00:26:52;10.20;99.90
60701;DHT22;46541;49.894;10.886;2024-02-23T00:29:22;10.20;99.90
60701;DHT22;46541;49.894;10.886;2024-02-23T00:31:50;10.20;99.90
60701;DHT22;46541;49.894;10.886;2024-02-23T00:34:20;10.10;99.90
60701;DHT22;46541;49.894;10.886;2024-02-23T00:36:50;10.10;99.90
60701;DHT22;46541;49.894;10.886;2024-02-23T00:39:20;10.10;99.90
60701;DHT22;46541;49.894;10.886;2024-02-23T00:41:50;10.10;99.90
60701;DHT22;46541;49.894;10.886;2024-02-23T00:44:20;10.10;99.90
60701;DHT22;46541;49.894;10.886;2024-02-23T00:46:49;10.00;99.90
60701;DHT22;46541;49.894;10.886;2024-02-23T00:49:20;10.00;99.90
60701;DHT22;46541;49.894;10.886;2024-02-23T00:51:50;9.90;99.90
60701;DHT22;46541;49.894;10.886;2024-02-23T00:54:20;9.90;99.90
60701;DHT22;46541;49.894;10.886;2024-02-23T00:56:48;9.90;99.90
60701;DHT22;46541;49.894;10.886;2024-02-23T00:59:20;9.90;99.90
60701;DHT22;46541;49.894;10.886;2024-02-23T01:01:50;9.80;99.90
60701;DHT22;46541;49.894;10.886;2024-02-23T01:04:20;9.80;99.90
60701;DHT22;46541;49.894;10.886;2024-02-23T01:06:50;9.80;99.90
60701;DHT22;46541;49.894;10.886;2024-02-23T01:09:20;9.70;99.90
60701;DHT22;46541;49.894;10.886;2024-02-23T01:11:50;9.70;99.90
60701;DHT22;46541;49.894;10.886;2024-02-23T01:14:20;9.60;99.90
60701;DHT22;46541;49.894;10.886;2024-02-23T01:16:50;9.60;99.90
60701;DHT22;46541;49.894;10.886;2024-02-23T01:19:23;9.60;99.90
60701;DHT22;46541;49.894;10.886;2024-02-23T01:21:53;9.60;99.90
60701;DHT22;46541;49.894;10.886;2024-02-23T01:24:28;9.50;99.90
60701;DHT22;46541;49.894;10.886;2024-02-23T01:26:58;9.50;99.90
60701;DHT22;46541;49.894;10.886;2024-02-23T01:29:28;9.50;99.90
60701;DHT22;46541;49.894;10.886;2024-02-23T01:31:58;9.50;99.90
60701;DHT22;46541;49.894;10.886;2024-02-23T01:34:28;9.40;99.90
60701;DHT22;46541;49.894;10.886;2024-02-23T01:36:58;9.40;99.90
60701;DHT22;46541;49.894;10.886;2024-02-23T01:39:28;9.40;99.90
60701;DHT22;46541;49.894;10.886;2024-02-23T01:41:58;9.40;99.90
60701;DHT22;46541;49.894;10.886;2024-02-23T01:44:27;9.30;99.90
60701;DHT22;46541;49.894;10.886;2024-02-23T01:46:55;9.30;99.90
60701;DHT22;46541;49.894;10.886;2024-02-23T01:49:26;9.30;99.90
60701;DHT22;46541;49.894;10.886;2024-02-23T01:52:01;9.30;99.90
60701;DHT22;46541;49.894;10.886;2024-02-23T01:54:29;9.30;99.90
60701;DHT22;46541;49.894;10.886;2024-02-23T01:56:57;9.30;99.90
60701;DHT22;46541;49.894;10.886;2024-02-23T01:59:47;9.30;99.90
60701;DHT22;46541;49.894;10.886;2024-02-23T02:02:18;9.20;99.90
60701;DHT22;46541;49.894;10.886;2024-02-23T02:04:48;9.20;99.90
60701;DHT22;46541;49.894;10.886;2024-02-23T02:07:18;9.20;99.90
60701;DHT22;46541;49.894;10.886;2024-02-23T02:09:51;9.10;99.90
60701;DHT22;46541;49.894;10.886;2024-02-23T02:12:28;9.10;99.90
60701;DHT22;46541;49.894;10.886;2024-02-23T02:14:58;9.00;99.90
60701;DHT22;46541;49.894;10.886;2024-02-23T02:17:30;9.10;99.90
60701;DHT22;46541;49.894;10.886;2024-02-23T02:20:05;9.00;99.90
60701;DHT22;46541;49.894;10.886;2024-02-23T02:22:37;9.00;99.90
60701;DHT22;46541;49.894;10.886;2024-02-23T02:25:07;9.00;99.90
60701;DHT22;46541;49.894;10.886;2024-02-23T02:27:37;9.00;99.90
60701;DHT22;46541;49.894;10.886;2024-02-23T02:30:07;8.90;99.90
60701;DHT22;46541;49.894;10.886;2024-02-23T02:32:38;8.90;99.90
60701;DHT22;46541;49.894;10.886;2024-02-23T02:35:10;8.80;99.90
60701;DHT22;46541;49.894;10.886;2024-02-23T02:37:41;8.80;99.90
60701;DHT22;46541;49.894;10.886;2024-02-23T02:40:11;8.80;99.90
60701;DHT22;46541;49.894;10.886;2024-02-23T02:42:41;8.80;99.90
60701;DHT22;46541;49.894;10.886;2024-02-23T02:45:11;8.80;99.90
60701;DHT22;46541;49.894;10.886;2024-02-23T02:47:43;8.80;99.90
60701;DHT22;46541;49.894;10.886;2024-02-23T02:50:13;8.80;99.90
60701;DHT22;46541;49.894;10.886;2024-02-23T02:52:43;8.80;99.90
60701;DHT22;46541;49.894;10.886;2024-02-23T02:55:13;8.80;99.90
60701;DHT22;46541;49.894;10.886;2024-02-23T02:57:44;8.90;99.90
60701;DHT22;46541;49.894;10.886;2024-02-23T03:00:14;8.80;99.90
60701;DHT22;46541;49.894;10.886;2024-02-23T03:02:44;8.80;99.90
60701;DHT22;46541;49.894;10.886;2024-02-23T03:05:14;8.80;99.90
60701;DHT22;46541;49.894;10.886;2024-02-23T03:07:44;8.80;99.90
60701;DHT22;46541;49.894;10.886;2024-02-23T03:10:14;8.80;99.90
60701;DHT22;46541;49.894;10.886;2024-02-23T03:12:48;8.70;99.90
60701;DHT22;46541;49.894;10.886;2024-02-23T03:15:17;8.70;99.90
60701;DHT22;46541;49.894;10.886;2024-02-23T03:17:50;8.60;99.90
60701;DHT22;46541;49.894;10.886;2024-02-23T03:20:20;8.60;99.90
60701;DHT22;46541;49.894;10.886;2024-02-23T03:22:50;8.50;99.90
60701;DHT22;46541;49.894;10.886;2024-02-23T03:25:19;8.40;99.90
60701;DHT22;46541;49.894;10.886;2024-02-23T03:27:49;8.40;99.90
60701;DHT22;46541;49.894;10.886;2024-02-23T03:30:20;8.40;99.90
60701;DHT22;46541;49.894;10.886;2024-02-23T03:32:50;8.40;99.90
60701;DHT22;46541;49.894;10.886;2024-02-23T03:35:20;8.40;99.90
60701;DHT22;46541;49.894;10.886;2024-02-23T03:37:53;8.40;99.90
60701;DHT22;46541;49.894;10.886;2024-02-23T03:40:22;8.40;99.90
60701;DHT22;46541;49.894;10.886;2024-02-23T03:42:53;8.40;99.90
60701;DHT22;46541;49.894;10.886;2024-02-23T03:45:23;8.40;99.90
60701;DHT22;46541;49.894;10.886;2024-02-23T03:47:53;8.40;99.90
60701;DHT22;46541;49.894;10.886;2024-02-23T03:50:23;8.40;99.90
60701;DHT22;46541;49.894;10.886;2024-02-23T03:52:53;8.50;99.90
60701;DHT22;46541;49.894;10.886;2024-02-23T03:55:23;8.50;99.90
60701;DHT22;46541;49.894;10.886;2024-02-23T03:57:53;8.50;99.90
60701;DHT22;46541;49.894;10.886;2024-02-23T04:00:23;8.60;99.90
60701;DHT22;46541;49.894;10.886;2024-02-23T04:02:53;8.60;99.90
60701;DHT22;46541;49.894;10.886;2024-02-23T04:05:25;8.60;99.90
60701;DHT22;46541;49.894;10.886;2024-02-23T04:07:55;8.60;99.90
60701;DHT22;46541;49.894;10.886;2024-02-23T04:10:25;8.60;99.90
60701;DHT22;46541;49.894;10.886;2024-02-23T04:12:55;8.60;99.90
60701;DHT22;46541;49.894;10.886;2024-02-23T04:15:25;8.50;99.90
60701;DHT22;46541;49.894;10.886;2024-02-23T04:17:55;8.50;99.90
60701;DHT22;46541;49.894;10.886;2024-02-23T04:20:25;8.50;99.90
60701;DHT22;46541;49.894;10.886;2024-02-23T04:22:55;8.40;99.90
60701;DHT22;46541;49.894;10.886;2024-02-23T04:25:25;8.20;99.90
60701;DHT22;46541;49.894;10.886;2024-02-23T04:27:55;8.20;99.90
60701;DHT22;46541;49.894;10.886;2024-02-23T04:30:24;8.10;99.90
60701;DHT22;46541;49.894;10.886;2024-02-23T04:32:54;8.10;99.90
60701;DHT22;46541;49.894;10.886;2024-02-23T04:35:24;8.10;99.90
60701;DHT22;46541;49.894;10.886;2024-02-23T04:37:55;8.00;99.90
60701;DHT22;46541;49.894;10.886;2024-02-23T04:40:24;7.90;99.90
60701;DHT22;46541;49.894;10.886;2024-02-23T04:42:52;7.80;99.90
60701;DHT22;46541;49.894;10.886;2024-02-23T04:45:21;7.80;99.90
60701;DHT22;46541;49.894;10.886;2024-02-23T04:47:48;7.70;99.90
60701;DHT22;46541;49.894;10.886;2024-02-23T04:50:16;7.60;99.90
60701;DHT22;46541;49.894;10.886;2024-02-23T04:52:46;7.60;99.90
60701;DHT22;46541;49.894;10.886;2024-02-23T04:55:16;7.50;99.90
60701;DHT22;46541;49.894;10.886;2024-02-23T04:57:46;7.50;99.90
60701;DHT22;46541;49.894;10.886;2024-02-23T05:00:16;7.50;99.90
60701;DHT22;46541;49.894;10.886;2024-02-23T05:02:46;7.50;99.90
60701;DHT22;46541;49.894;10.886;2024-02-23T05:05:16;7.50;99.90
60701;DHT22;46541;49.894;10.886;2024-02-23T05:07:46;7.50;99.90
60701;DHT22;46541;49.894;10.886;2024-02-23T05:10:16;7.50;99.90
60701;DHT22;46541;49.894;10.886;2024-02-23T05:12:45;7.50;99.90
60701;DHT22;46541;49.894;10.886;2024-02-23T05:15:13;7.50;99.90
60701;DHT22;46541;49.894;10.886;2024-02-23T05:17:43;7.50;99.90
60701;DHT22;46541;49.894;10.886;2024-02-23T05:20:13;7.50;99.90
60701;DHT22;46541;49.894;10.886;2024-02-23T05:22:41;7.50;99.90
60701;DHT22;46541;49.894;10.886;2024-02-23T05:25:11;7.40;99.90
60701;DHT22;46541;49.894;10.886;2024-02-23T05:27:40;7.40;99.90
60701;DHT22;46541;49.894;10.886;2024-02-23T05:30:12;7.30;99.90
60701;DHT22;46541;49.894;10.886;2024-02-23T05:32:41;7.40;99.90
60701;DHT22;46541;49.894;10.886;2024-02-23T05:35:12;7.40;99.90
60701;DHT22;46541;49.894;10.886;2024-02-23T05:37:42;7.40;99.90
60701;DHT22;46541;49.894;10.886;2024-02-23T05:40:12;7.40;99.90
60701;DHT22;46541;49.894;10.886;2024-02-23T05:42:42;7.30;99.90
60701;DHT22;46541;49.894;10.886;2024-02-23T05:45:12;7.30;99.90
60701;DHT22;46541;49.894;10.886;2024-02-23T05:47:42;7.30;99.90
60701;DHT22;46541;49.894;10.886;2024-02-23T05:50:15;7.30;99.90
60701;DHT22;46541;49.894;10.886;2024-02-23T05:52:45;7.30;99.90
60701;DHT22;46541;49.894;10.886;2024-02-23T05:55:15;7.30;99.90
60701;DHT22;46541;49.894;10.886;2024-02-23T05:57:45;7.30;99.90
60701;DHT22;46541;49.894;10.886;2024-02-23T06:00:16;7.30;99.90
60701;DHT22;46541;49.894;10.886;2024-02-23T06:02:48;7.30;99.90
60701;DHT22;46541;49.894;10.886;2024-02-23T06:05:18;7.30;99.90
60701;DHT22;46541;49.894;10.886;2024-02-23T06:07:48;7.30;99.90
60701;DHT22;46541;49.894;10.886;2024-02-23T06:10:18;7.30;99.90
60701;DHT22;46541;49.894;10.886;2024-02-23T06:12:48;7.30;99.90
60701;DHT22;46541;49.894;10.886;2024-02-23T06:15:20;7.20;99.90
60701;DHT22;46541;49.894;10.886;2024-02-23T06:17:50;7.20;99.90
60701;DHT22;46541;49.894;10.886;2024-02-23T06:20:20;7.20;99.90
60701;DHT22;46541;49.894;10.886;2024-02-23T06:22:50;7.20;99.90
60701;DHT22;46541;49.894;10.886;2024-02-23T06:25:20;7.20;99.90
60701;DHT22;46541;49.894;10.886;2024-02-23T06:27:50;7.20;99.90
60701;DHT22;46541;49.894;10.886;2024-02-23T06:30:20;7.20;99.90
60701;DHT22;46541;49.894;10.886;2024-02-23T06:32:50;7.30;99.90
60701;DHT22;46541;49.894;10.886;2024-02-23T06:35:20;7.20;99.90
60701;DHT22;46541;49.894;10.886;2024-02-23T06:37:51;7.30;99.90
60701;DHT22;46541;49.894;10.886;2024-02-23T06:40:21;7.30;99.90
60701;DHT22;46541;49.894;10.886;2024-02-23T06:42:54;7.30;99.90
60701;DHT22;46541;49.894;10.886;2024-02-23T06:45:24;7.20;99.90
60701;DHT22;46541;49.894;10.886;2024-02-23T06:47:58;7.20;99.90
60701;DHT22;46541;49.894;10.886;2024-02-23T06:50:28;7.30;99.90
60701;DHT22;46541;49.894;10.886;2024-02-23T06:52:58;7.20;99.90
60701;DHT22;46541;49.894;10.886;2024-02-23T06:55:28;7.20;99.90
60701;DHT22;46541;49.894;10.886;2024-02-23T06:57:58;7.30;99.90
60701;DHT22;46541;49.894;10.886;2024-02-23T07:00:28;7.30;99.90
60701;DHT22;46541;49.894;10.886;2024-02-23T07:02:58;7.20;99.90
60701;DHT22;46541;49.894;10.886;2024-02-23T07:05:30;7.20;99.90
60701;DHT22;46541;49.894;10.886;2024-02-23T07:08:00;7.30;99.90
60701;DHT22;46541;49.894;10.886;2024-02-23T07:10:30;7.30;99.90
60701;DHT22;46541;49.894;10.886;2024-02-23T07:13:01;7.30;99.90
60701;DHT22;46541;49.894;10.886;2024-02-23T07:15:34;7.40;99.90
60701;DHT22;46541;49.894;10.886;2024-02-23T07:18:05;7.40;99.90
60701;DHT22;46541;49.894;10.886;2024-02-23T07:20:37;7.40;99.90
60701;DHT22;46541;49.894;10.886;2024-02-23T07:23:06;7.40;99.90
60701;DHT22;46541;49.894;10.886;2024-02-23T07:25:36;7.40;99.90
60701;DHT22;46541;49.894;10.886;2024-02-23T07:28:06;7.40;99.90
60701;DHT22;46541;49.894;10.886;2024-02-23T07:30:36;7.50;99.90
60701;DHT22;46541;49.894;10.886;2024-02-23T07:33:06;7.50;99.90
60701;DHT22;46541;49.894;10.886;2024-02-23T07:35:36;7.50;99.90
60701;DHT22;46541;49.894;10.886;2024-02-23T07:38:06;7.60;99.90
60701;DHT22;46541;49.894;10.886;2024-02-23T07:40:36;7.60;99.90
60701;DHT22;46541;49.894;10.886;2024-02-23T07:43:06;7.60;99.90
60701;DHT22;46541;49.894;10.886;2024-02-23T07:45:36;7.70;99.90
60701;DHT22;46541;49.894;10.886;2024-02-23T07:48:06;7.70;99.90
60701;DHT22;46541;49.894;10.886;2024-02-23T07:50:38;7.80;99.90
60701;DHT22;46541;49.894;10.886;2024-02-23T07:53:07;7.80;99.90
60701;DHT22;46541;49.894;10.886;2024-02-23T07:55:37;7.80;99.90
60701;DHT22;46541;49.894;10.886;2024-02-23T07:58:07;7.80;99.90
60701;DHT22;46541;49.894;10.886;2024-02-23T08:00:37;7.80;99.90
60701;DHT22;46541;49.894;10.886;2024-02-23T08:03:07;7.80;99.90
60701;DHT22;46541;49.894;10.886;2024-02-23T08:05:37;7.90;99.90
60701;DHT22;46541;49.894;10.886;2024-02-23T08:08:07;7.90;99.90
60701;DHT22;46541;49.894;10.886;2024-02-23T08:10:37;8.00;99.90
60701;DHT22;46541;49.894;10.886;2024-02-23T08:13:07;8.00;99.90
60701;DHT22;46541;49.894;10.886;2024-02-23T08:15:39;7.90;99.90
60701;DHT22;46541;49.894;10.886;2024-02-23T08:18:09;7.90;99.90
60701;DHT22;46541;49.894;10.886;2024-02-23T08:20:39;8.00;99.90
60701;DHT22;46541;49.894;10.886;2024-02-23T08:23:06;8.00;99.90
60701;DHT22;46541;49.894;10.886;2024-02-23T08:25:38;8.00;99.90
60701;DHT22;46541;49.894;10.886;2024-02-23T08:28:08;8.10;99.90
60701;DHT22;46541;49.894;10.886;2024-02-23T08:30:38;8.20;99.90
60701;DHT22;46541;49.894;10.886;2024-02-23T08:33:08;8.20;99.90
60701;DHT22;46541;49.894;10.886;2024-02-23T08:35:38;8.20;99.90
60701;DHT22;46541;49.894;10.886;2024-02-23T08:38:09;8.30;99.90
60701;DHT22;46541;49.894;10.886;2024-02-23T08:40:38;8.30;99.90
60701;DHT22;46541;49.894;10.886;2024-02-23T08:43:09;8.30;99.90
60701;DHT22;46541;49.894;10.886;2024-02-23T08:45:38;8.40;99.90
60701;DHT22;46541;49.894;10.886;2024-02-23T08:48:08;8.50;99.90
60701;DHT22;46541;49.894;10.886;2024-02-23T08:50:38;8.50;99.90
60701;DHT22;46541;49.894;10.886;2024-02-23T08:53:08;8.60;99.90
60701;DHT22;46541;49.894;10.886;2024-02-23T08:55:39;8.60;99.90
60701;DHT22;46541;49.894;10.886;2024-02-23T08:58:09;8.70;99.90
60701;DHT22;46541;49.894;10.886;2024-02-23T09:00:39;8.70;99.90
60701;DHT22;46541;49.894;10.886;2024-02-23T09:03:08;8.70;99.90
60701;DHT22;46541;49.894;10.886;2024-02-23T09:05:39;8.80;99.90
60701;DHT22;46541;49.894;10.886;2024-02-23T09:08:10;8.70;99.90
60701;DHT22;46541;49.894;10.886;2024-02-23T09:10:41;8.80;99.90
60701;DHT22;46541;49.894;10.886;2024-02-23T09:13:11;8.80;99.90
60701;DHT22;46541;49.894;10.886;2024-02-23T09:15:41;8.80;99.90
60701;DHT22;46541;49.894;10.886;2024-02-23T09:18:11;8.80;99.90
60701;DHT22;46541;49.894;10.886;2024-02-23T09:20:42;8.80;99.90
60701;DHT22;46541;49.894;10.886;2024-02-23T09:23:12;8.80;99.90
60701;DHT22;46541;49.894;10.886;2024-02-23T09:25:42;8.70;99.90
60701;DHT22;46541;49.894;10.886;2024-02-23T09:28:11;8.50;99.90
60701;DHT22;46541;49.894;10.886;2024-02-23T09:30:39;8.50;99.90
60701;DHT22;46541;49.894;10.886;2024-02-23T09:33:09;8.50;99.90
60701;DHT22;46541;49.894;10.886;2024-02-23T09:35:39;8.50;99.90
60701;DHT22;46541;49.894;10.886;2024-02-23T09:38:09;8.60;99.90
60701;DHT22;46541;49.894;10.886;2024-02-23T09:40:39;8.70;99.90
60701;DHT22;46541;49.894;10.886;2024-02-23T09:43:10;8.70;99.90
60701;DHT22;46541;49.894;10.886;2024-02-23T09:45:40;8.80;99.90
60701;DHT22;46541;49.894;10.886;2024-02-23T09:48:11;8.80;99.90
60701;DHT22;46541;49.894;10.886;2024-02-23T09:50:43;8.80;99.90
60701;DHT22;46541;49.894;10.886;2024-02-23T09:53:14;8.90;99.90
60701;DHT22;46541;49.894;10.886;2024-02-23T09:55:45;9.00;99.90
60701;DHT22;46541;49.894;10.886;2024-02-23T09:58:17;8.90;99.90
60701;DHT22;46541;49.894;10.886;2024-02-23T10:00:47;9.00;99.90
60701;DHT22;46541;49.894;10.886;2024-02-23T10:03:17;9.10;99.90
60701;DHT22;46541;49.894;10.886;2024-02-23T10:05:47;9.20;99.90
60701;DHT22;46541;49.894;10.886;2024-02-23T10:08:18;9.20;99.90
60701;DHT22;46541;49.894;10.886;2024-02-23T10:10:49;9.20;99.90
60701;DHT22;46541;49.894;10.886;2024-02-23T10:13:20;9.20;99.90
60701;DHT22;46541;49.894;10.886;2024-02-23T10:15:51;9.10;99.90
60701;DHT22;46541;49.894;10.886;2024-02-23T10:18:40;9.10;99.90
60701;DHT22;46541;49.894;10.886;2024-02-23T10:21:09;9.10;99.90
60701;DHT22;46541;49.894;10.886;2024-02-23T10:23:41;9.00;99.90
60701;DHT22;46541;49.894;10.886;2024-02-23T10:26:11;8.90;99.90
60701;DHT22;46541;49.894;10.886;2024-02-23T10:28:41;8.90;99.90
60701;DHT22;46541;49.894;10.886;2024-02-23T10:31:11;9.00;99.90
60701;DHT22;46541;49.894;10.886;2024-02-23T10:33:42;9.00;99.90
60701;DHT22;46541;49.894;10.886;2024-02-23T10:36:16;9.00;99.90
60701;DHT22;46541;49.894;10.886;2024-02-23T10:38:47;9.10;99.90
60701;DHT22;46541;49.894;10.886;2024-02-23T10:41:19;9.30;99.90
60701;DHT22;46541;49.894;10.886;2024-02-23T10:43:51;9.40;99.90
60701;DHT22;46541;49.894;10.886;2024-02-23T10:46:22;9.40;99.90
60701;DHT22;46541;49.894;10.886;2024-02-23T10:48:54;9.40;99.90
60701;DHT22;46541;49.894;10.886;2024-02-23T10:51:24;9.40;99.90
60701;DHT22;46541;49.894;10.886;2024-02-23T10:53:55;9.30;99.90
60701;DHT22;46541;49.894;10.886;2024-02-23T10:56:26;9.20;99.90
60701;DHT22;46541;49.894;10.886;2024-02-23T10:58:58;9.30;99.90
60701;DHT22;46541;49.894;10.886;2024-02-23T11:01:28;9.40;99.90
60701;DHT22;46541;49.894;10.886;2024-02-23T11:03:58;9.40;99.90
60701;DHT22;46541;49.894;10.886;2024-02-23T11:06:28;9.50;99.90
60701;DHT22;46541;49.894;10.886;2024-02-23T11:09:11;9.40;99.90
60701;DHT22;46541;49.894;10.886;2024-02-23T11:11:54;9.50;99.90
60701;DHT22;46541;49.894;10.886;2024-02-23T11:14:39;9.60;99.90
60701;DHT22;46541;49.894;10.886;2024-02-23T11:17:18;9.60;99.90
60701;DHT22;46541;49.894;10.886;2024-02-23T11:19:51;9.60;99.90
60701;DHT22;46541;49.894;10.886;2024-02-23T11:22:30;9.60;99.90
60701;DHT22;46541;49.894;10.886;2024-02-23T11:25:07;9.50;99.90
60701;DHT22;46541;49.894;10.886;2024-02-23T11:27:41;9.50;99.90
60701;DHT22;46541;49.894;10.886;2024-02-23T11:30:13;9.60;99.90
60701;DHT22;46541;49.894;10.886;2024-02-23T11:32:47;9.60;99.90
60701;DHT22;46541;49.894;10.886;2024-02-23T11:35:18;9.80;99.90
60701;DHT22;46541;49.894;10.886;2024-02-23T11:37:55;9.90;99.90
60701;DHT22;46541;49.894;10.886;2024-02-23T11:40:32;9.90;99.90
60701;DHT22;46541;49.894;10.886;2024-02-23T11:43:02;9.90;99.90
60701;DHT22;46541;49.894;10.886;2024-02-23T11:45:33;9.80;99.90
60701;DHT22;46541;49.894;10.886;2024-02-23T11:48:04;9.80;99.90
60701;DHT22;46541;49.894;10.886;2024-02-23T11:50:35;9.80;99.90
60701;DHT22;46541;49.894;10.886;2024-02-23T11:53:05;9.90;99.90
60701;DHT22;46541;49.894;10.886;2024-02-23T11:55:36;10.00;99.90
60701;DHT22;46541;49.894;10.886;2024-02-23T11:58:06;10.00;99.90
60701;DHT22;46541;49.894;10.886;2024-02-23T12:00:45;9.90;99.90
60701;DHT22;46541;49.894;10.886;2024-02-23T12:03:15;9.70;99.90
60701;DHT22;46541;49.894;10.886;2024-02-23T12:05:45;9.70;99.90
60701;DHT22;46541;49.894;10.886;2024-02-23T12:08:19;9.60;99.90
60701;DHT22;46541;49.894;10.886;2024-02-23T12:10:49;9.60;99.90
60701;DHT22;46541;49.894;10.886;2024-02-23T12:13:19;9.60;99.90
60701;DHT22;46541;49.894;10.886;2024-02-23T12:15:51;9.70;99.90
60701;DHT22;46541;49.894;10.886;2024-02-23T12:18:22;9.60;99.90
60701;DHT22;46541;49.894;10.886;2024-02-23T12:21:04;9.60;99.90
60701;DHT22;46541;49.894;10.886;2024-02-23T12:23:41;9.70;99.90
60701;DHT22;46541;49.894;10.886;2024-02-23T12:26:14;9.80;99.90
60701;DHT22;46541;49.894;10.886;2024-02-23T12:28:44;9.80;99.90
60701;DHT22;46541;49.894;10.886;2024-02-23T12:31:15;9.90;99.90
60701;DHT22;46541;49.894;10.886;2024-02-23T12:33:46;9.90;99.90
60701;DHT22;46541;49.894;10.886;2024-02-23T12:36:17;9.90;99.90
60701;DHT22;46541;49.894;10.886;2024-02-23T12:38:47;9.90;99.90
60701;DHT22;46541;49.894;10.886;2024-02-23T12:41:17;9.90;99.90
60701;DHT22;46541;49.894;10.886;2024-02-23T12:43:47;9.90;99.90
60701;DHT22;46541;49.894;10.886;2024-02-23T12:46:17;9.90;99.90
60701;DHT22;46541;49.894;10.886;2024-02-23T12:48:47;9.90;99.90
60701;DHT22;46541;49.894;10.886;2024-02-23T12:51:17;10.00;99.90
60701;DHT22;46541;49.894;10.886;2024-02-23T12:53:47;10.10;99.90
60701;DHT22;46541;49.894;10.886;2024-02-23T12:56:17;10.20;99.90
60701;DHT22;46541;49.894;10.886;2024-02-23T12:58:47;10.20;99.90
60701;DHT22;46541;49.894;10.886;2024-02-23T13:01:17;10.10;99.90
60701;DHT22;46541;49.894;10.886;2024-02-23T13:03:47;10.20;99.90
60701;DHT22;46541;49.894;10.886;2024-02-23T13:06:18;10.10;99.90
60701;DHT22;46541;49.894;10.886;2024-02-23T13:08:48;10.10;99.90
60701;DHT22;46541;49.894;10.886;2024-02-23T13:11:18;10.10;99.90
60701;DHT22;46541;49.894;10.886;2024-02-23T13:13:48;10.00;99.90
60701;DHT22;46541;49.894;10.886;2024-02-23T13:16:18;10.00;99.90
60701;DHT22;46541;49.894;10.886;2024-02-23T13:18:48;10.00;99.90
60701;DHT22;46541;49.894;10.886;2024-02-23T13:21:18;9.90;99.90
60701;DHT22;46541;49.894;10.886;2024-02-23T13:23:48;10.00;99.90
60701;DHT22;46541;49.894;10.886;2024-02-23T13:26:18;10.00;99.90
60701;DHT22;46541;49.894;10.886;2024-02-23T13:28:48;10.00;99.90
60701;DHT22;46541;49.894;10.886;2024-02-23T13:31:18;10.10;99.90
60701;DHT22;46541;49.894;10.886;2024-02-23T13:33:48;10.10;99.90
60701;DHT22;46541;49.894;10.886;2024-02-23T13:36:18;10.10;99.90
60701;DHT22;46541;49.894;10.886;2024-02-23T13:38:48;10.10;99.90
60701;DHT22;46541;49.894;10.886;2024-02-23T13:41:19;10.00;99.90
60701;DHT22;46541;49.894;10.886;2024-02-23T13:43:49;9.90;99.90
60701;DHT22;46541;49.894;10.886;2024-02-23T13:46:19;9.90;99.90
60701;DHT22;46541;49.894;10.886;2024-02-23T13:49:08;10.00;99.90
60701;DHT22;46541;49.894;10.886;2024-02-23T13:51:38;10.00;99.90
60701;DHT22;46541;49.894;10.886;2024-02-23T13:54:08;10.00;99.90
60701;DHT22;46541;49.894;10.886;2024-02-23T13:56:38;10.00;99.90
60701;DHT22;46541;49.894;10.886;2024-02-23T13:59:08;10.00;99.90
60701;DHT22;46541;49.894;10.886;2024-02-23T14:01:38;10.10;99.90
60701;DHT22;46541;49.894;10.886;2024-02-23T14:04:08;10.00;99.90
60701;DHT22;46541;49.894;10.886;2024-02-23T14:06:38;10.10;99.90
60701;DHT22;46541;49.894;10.886;2024-02-23T14:09:07;10.00;99.90
60701;DHT22;46541;49.894;10.886;2024-02-23T14:11:37;10.00;99.90
60701;DHT22;46541;49.894;10.886;2024-02-23T14:14:09;10.00;99.90
60701;DHT22;46541;49.894;10.886;2024-02-23T14:16:39;10.10;99.90
60701;DHT22;46541;49.894;10.886;2024-02-23T14:19:09;10.00;99.90
60701;DHT22;46541;49.894;10.886;2024-02-23T14:21:39;10.10;99.90
60701;DHT22;46541;49.894;10.886;2024-02-23T14:24:09;10.10;99.90
60701;DHT22;46541;49.894;10.886;2024-02-23T14:26:39;10.10;99.90
60701;DHT22;46541;49.894;10.886;2024-02-23T14:29:09;10.20;99.90
60701;DHT22;46541;49.894;10.886;2024-02-23T14:31:39;10.20;99.90
60701;DHT22;46541;49.894;10.886;2024-02-23T14:34:09;10.10;99.90
60701;DHT22;46541;49.894;10.886;2024-02-23T14:36:39;10.10;99.90
60701;DHT22;46541;49.894;10.886;2024-02-23T14:39:09;10.10;99.90
60701;DHT22;46541;49.894;10.886;2024-02-23T14:41:39;10.00;99.90
60701;DHT22;46541;49.894;10.886;2024-02-23T14:44:09;9.90;99.90
60701;DHT22;46541;49.894;10.886;2024-02-23T14:46:39;9.90;99.90
60701;DHT22;46541;49.894;10.886;2024-02-23T14:49:10;9.80;99.90
60701;DHT22;46541;49.894;10.886;2024-02-23T14:51:40;9.60;99.90
60701;DHT22;46541;49.894;10.886;2024-02-23T14:54:12;9.60;99.90
60701;DHT22;46541;49.894;10.886;2024-02-23T14:56:42;9.60;99.90
60701;DHT22;46541;49.894;10.886;2024-02-23T14:59:12;9.60;99.90
60701;DHT22;46541;49.894;10.886;2024-02-23T15:01:42;9.60;99.90
60701;DHT22;46541;49.894;10.886;2024-02-23T15:04:12;9.60;99.90
60701;DHT22;46541;49.894;10.886;2024-02-23T15:06:45;9.60;99.90
60701;DHT22;46541;49.894;10.886;2024-02-23T15:09:15;9.60;99.90
60701;DHT22;46541;49.894;10.886;2024-02-23T15:11:45;9.50;99.90
60701;DHT22;46541;49.894;10.886;2024-02-23T15:14:15;9.50;99.90
60701;DHT22;46541;49.894;10.886;2024-02-23T15:16:45;9.50;99.90
60701;DHT22;46541;49.894;10.886;2024-02-23T15:19:15;9.40;99.90
60701;DHT22;46541;49.894;10.886;2024-02-23T15:21:45;9.40;99.90
60701;DHT22;46541;49.894;10.886;2024-02-23T15:24:15;9.40;99.90
60701;DHT22;46541;49.894;10.886;2024-02-23T15:26:47;9.30;99.90
60701;DHT22;46541;49.894;10.886;2024-02-23T15:29:18;9.30;99.90
60701;DHT22;46541;49.894;10.886;2024-02-23T15:31:48;9.30;99.90
60701;DHT22;46541;49.894;10.886;2024-02-23T15:34:17;9.30;99.90
60701;DHT22;46541;49.894;10.886;2024-02-23T15:36:46;9.20;99.90
60701;DHT22;46541;49.894;10.886;2024-02-23T15:39:16;9.20;99.90
60701;DHT22;46541;49.894;10.886;2024-02-23T15:41:43;9.30;99.90
60701;DHT22;46541;49.894;10.886;2024-02-23T15:44:14;9.20;99.90
60701;DHT22;46541;49.894;10.886;2024-02-23T15:46:44;9.10;99.90
60701;DHT22;46541;49.894;10.886;2024-02-23T15:49:15;9.10;99.90